Fukui, Japan

10:31 AM JST on January 29, 2015 (GMT +0900)
Komatsu | Change Station
CLOSE
Current Station
Airport
Location: Komatsu AB,
Elevation: 30 ft
Nearby Weather Stations

Elev 30 ft 36.39 °N, 136.41 °E | Updated 31 minutes ago

Mostly Cloudy
Mostly Cloudy
36 °F
Feels Like 36 °F
N
2
Wind Variable Wind from Variable

Today
High -- | Low -- °F
--% Chance of Precip.
Yesterday
High -- | Low -- °F
Precip. -- in
6:59 AM 5:17 PM
Waxing Gibbous, 69% visible
Pressure 30.39 in
Visibility 6.2 miles
Clouds Few 1000 ft
Scattered Clouds 3000 ft
Mostly Cloudy 4000 ft
Dew Point 28 °F
Humidity 75%
Rainfall 0.00 in
Snow Depth Not available.
UV 1 out of 12
Pollen Not available.
Air Quality Not available.
Flu Activity Not available.
METAR RJNK 290100Z VRB02KT 9999 FEW010 SCT030 BKN040 02/M02 Q1029

More Conditions Fewer Conditions

Pressure 30.39 in
Visibility 6.2 miles
Clouds Few 1000 ft
Scattered Clouds 3000 ft
Mostly Cloudy 4000 ft
Dew Point 28 °F
Humidity 75%
Rainfall 0.00 in
Snow Depth Not available.
UV 1 out of 12
Pollen Not available.
Air Quality Not available.
Flu Activity Not available.
METAR RJNK 290100Z VRB02KT 9999 FEW010 SCT030 BKN040 02/M02 Q1029

More Conditions Fewer Conditions

10-Day Weather Forecast

Almanac

Astronomy

Jan. 29, 2015 Rise Set
Actual Time
Civil Twilight
Nautical Twilight
Astronomical Twilight
Moon
Length of Visible Light
Length of Day
Tomorrow will be .
, % of the Moon is Illuminated

Today's Extremes

Country Highs Country Lows

Community

WunderPhotos

Upload Photos

1,791,321 photos uploaded!

WunderBlogs® & News

Nearby

Air Quality

  Air Quality AQ Index Pollutant
Not available.

Snow Depth

Station Depth Elevation

Earthquake Activity

City Distance Mag. Time & Date
Minimum magnitude displayed is 2.5.

Coastal Water Temperatures

Place Temperature

Nearby Weather Stations